createdAt,value
2022-09-17T00:30:18.628Z,10.73
2022-09-17T00:31:27.262Z,11.63
2022-09-17T00:32:29.403Z,19.38
2022-09-17T00:33:34.174Z,22.48
2022-09-17T00:34:39.020Z,19.20
2022-09-17T00:35:41.256Z,14.75
2022-09-17T00:36:45.898Z,26.98
2022-09-17T00:37:47.987Z,28.70
2022-09-17T00:38:53.540Z,17.20
2022-09-17T00:39:55.632Z,34.08
2022-09-17T00:41:00.572Z,16.00
2022-09-17T00:42:05.756Z,31.25
2022-09-17T00:43:14.554Z,23.55
2022-09-17T00:44:47.130Z,19.40
2022-09-17T00:45:53.516Z,14.43
2022-09-17T00:46:58.941Z,5.97
2022-09-17T00:48:05.704Z,8.13
2022-09-17T00:49:14.663Z,15.45
2022-09-17T00:50:24.301Z,15.07
2022-09-17T00:51:33.856Z,17.27
2022-09-17T00:52:42.633Z,17.73
2022-09-17T00:53:45.058Z,20.27
2022-09-17T00:54:57.213Z,21.15
2022-09-17T00:56:03.648Z,14.98
2022-09-17T00:57:09.352Z,16.40
2022-09-17T00:58:15.720Z,19.92
2022-09-17T00:59:18.869Z,20.05
2022-09-17T01:00:24.490Z,33.08
2022-09-17T01:01:26.877Z,33.80
2022-09-17T01:02:34.279Z,35.30
2022-09-17T01:03:39.166Z,36.85
2022-09-17T01:04:43.796Z,51.95
2022-09-17T01:05:50.508Z,47.10
2022-09-17T01:07:04.478Z,35.47
2022-09-17T01:08:13.598Z,22.10
2022-09-17T01:09:29.287Z,10.02
2022-09-17T01:10:42.857Z,13.10
2022-09-17T01:12:01.031Z,14.65
2022-09-17T01:13:14.108Z,36.03
2022-09-17T01:14:35.599Z,47.25
2022-09-17T01:15:47.076Z,13.57
2022-09-17T01:17:00.292Z,39.67
2022-09-17T01:18:25.204Z,10.20
2022-09-17T01:19:56.097Z,55.03
2022-09-17T01:21:36.455Z,21.77
2022-09-17T01:22:54.352Z,51.60
2022-09-17T01:24:40.335Z,26.70
2022-09-17T01:25:56.749Z,29.95
2022-09-17T01:27:45.875Z,39.97
2022-09-17T01:28:59.328Z,33.28
2022-09-17T01:30:18.537Z,38.30
2022-09-17T01:31:39.115Z,8.60
2022-09-17T01:32:46.232Z,27.98
2022-09-17T01:34:02.577Z,23.27
2022-09-17T01:35:11.371Z,12.88
2022-09-17T01:36:39.997Z,28.85
2022-09-17T01:37:54.317Z,23.95
2022-09-17T01:39:09.227Z,6.72
2022-09-17T01:40:25.092Z,48.53
2022-09-17T01:41:39.530Z,23.65
2022-09-17T01:42:51.551Z,33.60
2022-09-17T01:44:01.381Z,9.98
2022-09-17T01:45:10.665Z,10.75
2022-09-17T01:46:21.178Z,30.33
2022-09-17T01:47:31.131Z,17.35
2022-09-17T01:48:38.872Z,27.25
2022-09-17T01:49:41.235Z,19.45
2022-09-17T01:50:50.949Z,27.67
2022-09-17T01:51:54.996Z,21.38
2022-09-17T01:53:01.535Z,12.43
2022-09-17T01:54:06.946Z,31.55
2022-09-17T01:55:15.488Z,38.85
2022-09-17T01:56:24.435Z,40.20
2022-09-17T01:57:35.490Z,28.92
2022-09-17T01:58:42.685Z,9.40
2022-09-17T01:59:52.309Z,9.48
2022-09-17T02:01:00.457Z,11.63
2022-09-17T02:02:14.284Z,10.65
2022-09-17T02:03:23.076Z,21.10
2022-09-17T02:04:32.341Z,15.27
2022-09-17T02:05:40.716Z,33.40
2022-09-17T02:06:50.889Z,17.65
2022-09-17T02:07:56.799Z,33.58
2022-09-17T02:09:07.181Z,33.42
2022-09-17T02:10:12.789Z,33.38
2022-09-17T02:11:18.111Z,22.10
2022-09-17T02:12:25.353Z,23.95
2022-09-17T02:13:35.800Z,12.68
2022-09-17T02:14:44.166Z,22.38
2022-09-17T02:15:54.265Z,18.35
2022-09-17T02:17:03.892Z,26.40
2022-09-17T02:18:13.501Z,20.48
2022-09-17T02:19:23.622Z,22.63
2022-09-17T02:20:35.845Z,26.60
2022-09-17T02:21:44.253Z,48.63
2022-09-17T02:22:53.749Z,26.75
2022-09-17T02:24:04.267Z,13.73
2022-09-17T02:25:16.479Z,10.43
2022-09-17T02:26:20.884Z,14.40
2022-09-17T02:27:31.668Z,20.67
2022-09-17T02:28:41.290Z,21.98
2022-09-17T02:29:47.484Z,19.40
2022-09-17T02:30:49.597Z,24.65
2022-09-17T02:31:55.956Z,17.23
2022-09-17T02:32:58.442Z,17.23
2022-09-17T02:34:07.336Z,16.85
2022-09-17T02:35:14.024Z,35.95
2022-09-17T02:36:19.227Z,49.67
2022-09-17T02:37:21.573Z,40.88
2022-09-17T02:38:28.507Z,72.88
2022-09-17T02:39:30.981Z,29.30
2022-09-17T02:40:42.465Z,27.35
2022-09-17T02:41:52.519Z,27.27
2022-09-17T02:43:10.510Z,15.00
2022-09-17T02:44:22.358Z,39.05
2022-09-17T02:45:42.001Z,26.70
2022-09-17T02:47:01.182Z,40.05
2022-09-17T02:48:23.770Z,22.10
2022-09-17T02:49:43.800Z,11.73
2022-09-17T02:51:15.414Z,23.20
2022-09-17T02:52:27.593Z,10.10
2022-09-17T02:53:40.706Z,10.38
2022-09-17T02:54:55.435Z,11.82
2022-09-17T02:56:07.423Z,17.95
2022-09-17T02:57:20.652Z,19.88
2022-09-17T02:58:27.198Z,33.35
2022-09-17T02:59:37.854Z,32.78
2022-09-17T03:00:40.921Z,39.17
2022-09-17T03:01:50.416Z,29.48
2022-09-17T03:02:57.784Z,15.25
2022-09-17T03:04:05.431Z,18.38
2022-09-17T03:05:08.545Z,18.60
2022-09-17T03:06:16.193Z,14.93
2022-09-17T03:07:20.151Z,20.45
2022-09-17T03:08:31.996Z,19.08
2022-09-17T03:09:34.350Z,22.00
2022-09-17T03:10:39.619Z,23.50
2022-09-17T03:11:42.511Z,17.55
2022-09-17T03:12:47.179Z,27.00
2022-09-17T03:13:49.448Z,32.90
2022-09-17T03:14:54.140Z,22.98
2022-09-17T03:15:56.226Z,25.35
2022-09-17T03:17:00.985Z,21.52
2022-09-17T03:18:03.165Z,45.20
2022-09-17T03:19:08.399Z,18.02
2022-09-17T03:20:10.777Z,13.57
2022-09-17T03:21:17.932Z,10.35
2022-09-17T03:22:20.033Z,12.02
2022-09-17T03:23:24.664Z,19.67
2022-09-17T03:24:27.232Z,22.65
2022-09-17T03:25:31.960Z,20.50
2022-09-17T03:26:33.998Z,21.23
2022-09-17T03:27:38.701Z,28.20
2022-09-17T03:28:40.816Z,25.92
2022-09-17T03:29:45.457Z,16.95
2022-09-17T03:30:47.790Z,28.35
2022-09-17T03:31:52.711Z,16.63
2022-09-17T03:32:54.929Z,12.23
2022-09-17T03:33:59.532Z,39.67
2022-09-17T03:35:01.576Z,15.98
2022-09-17T03:36:06.576Z,27.13
2022-09-17T03:37:13.768Z,13.00
2022-09-17T03:38:16.514Z,18.90
2022-09-17T03:39:21.335Z,13.50
2022-09-17T03:40:23.371Z,30.67
2022-09-17T03:41:28.858Z,35.65
2022-09-17T03:42:30.994Z,25.00
2022-09-17T03:43:36.183Z,25.00
2022-09-17T03:44:41.351Z,29.95
2022-09-17T03:45:49.334Z,36.45
2022-09-17T03:46:54.190Z,37.50
2022-09-17T03:47:57.018Z,41.50
2022-09-17T03:49:01.818Z,64.57
2022-09-17T03:50:05.241Z,35.30
2022-09-17T03:51:09.906Z,51.30
2022-09-17T03:52:14.653Z,49.58
2022-09-17T03:53:19.355Z,36.30
2022-09-17T03:54:21.468Z,25.58
2022-09-17T03:55:26.087Z,24.05
2022-09-17T03:56:28.118Z,32.55
2022-09-17T03:57:32.810Z,23.42
2022-09-17T03:58:35.853Z,49.05
2022-09-17T03:59:40.487Z,22.50
2022-09-17T04:00:43.193Z,15.57
2022-09-17T04:01:47.902Z,20.88
2022-09-17T04:02:50.100Z,31.80
2022-09-17T04:03:54.923Z,24.60
2022-09-17T04:04:57.084Z,15.98
2022-09-17T04:06:01.705Z,25.15
2022-09-17T04:07:03.842Z,16.50
2022-09-17T04:08:11.062Z,32.60
2022-09-17T04:09:13.159Z,24.88
2022-09-17T04:10:18.645Z,16.25
2022-09-17T04:11:20.903Z,19.77
2022-09-17T04:12:25.501Z,15.25
2022-09-17T04:13:28.492Z,15.70
2022-09-17T04:14:33.141Z,11.52
2022-09-17T04:15:35.181Z,20.92
2022-09-17T04:16:39.822Z,22.08
2022-09-17T04:17:41.872Z,32.97
2022-09-17T04:18:46.678Z,23.65
2022-09-17T04:19:48.828Z,16.77
2022-09-17T04:20:53.637Z,16.42
2022-09-17T04:21:55.658Z,19.35
2022-09-17T04:23:00.663Z,19.40
2022-09-17T04:24:06.173Z,18.23
2022-09-17T04:25:11.684Z,17.08
2022-09-17T04:26:13.783Z,25.60
2022-09-17T04:27:18.669Z,11.07
2022-09-17T04:28:20.784Z,26.15
2022-09-17T04:29:26.193Z,13.13
2022-09-17T04:30:28.262Z,7.93
2022-09-17T04:31:32.958Z,12.60
2022-09-17T04:32:35.064Z,15.27
2022-09-17T04:33:40.042Z,24.15
2022-09-17T04:34:42.107Z,11.88
2022-09-17T04:35:46.751Z,20.48
2022-09-17T04:36:48.807Z,12.57
2022-09-17T04:37:57.231Z,12.02
2022-09-17T04:38:59.354Z,15.90
2022-09-17T04:40:10.046Z,13.75
2022-09-17T04:41:14.678Z,34.93
2022-09-17T04:42:16.683Z,18.23
2022-09-17T04:43:21.394Z,26.60
2022-09-17T04:44:23.648Z,24.23
2022-09-17T04:45:29.687Z,21.02
2022-09-17T04:46:31.759Z,25.23
2022-09-17T04:47:36.328Z,14.68
2022-09-17T04:48:38.559Z,27.73
2022-09-17T04:49:43.287Z,20.27
2022-09-17T04:50:45.408Z,24.98
2022-09-17T04:51:50.136Z,20.85
2022-09-17T04:52:52.398Z,28.90
2022-09-17T04:53:57.032Z,25.23
2022-09-17T04:54:59.136Z,23.25
2022-09-17T04:56:06.414Z,16.30
2022-09-17T04:57:08.505Z,18.33
2022-09-17T04:58:13.697Z,18.88
2022-09-17T04:59:15.728Z,12.52
2022-09-17T05:00:22.240Z,11.18
2022-09-17T05:01:24.566Z,20.80
2022-09-17T05:02:31.946Z,23.88
2022-09-17T05:03:34.214Z,10.00
2022-09-17T05:04:38.984Z,13.90
2022-09-17T05:05:41.430Z,20.05
2022-09-17T05:06:46.107Z,15.40
2022-09-17T05:07:48.531Z,37.90
2022-09-17T05:08:53.316Z,16.63
2022-09-17T05:09:55.454Z,22.35
2022-09-17T05:11:00.459Z,12.85
2022-09-17T05:12:05.463Z,25.35
2022-09-17T05:13:10.166Z,18.35
2022-09-17T05:14:13.504Z,22.23
2022-09-17T05:15:18.089Z,33.97
2022-09-17T05:16:20.713Z,57.70
2022-09-17T05:17:25.460Z,34.80
2022-09-17T05:18:27.567Z,27.38
2022-09-17T05:19:32.245Z,18.70
2022-09-17T05:20:37.045Z,42.25
2022-09-17T05:21:39.123Z,45.42
2022-09-17T05:22:45.534Z,53.60
2022-09-17T05:23:48.069Z,52.35
2022-09-17T05:24:52.657Z,28.58
2022-09-17T05:26:03.858Z,23.70
2022-09-17T05:27:09.508Z,13.52
2022-09-17T05:28:17.450Z,15.98
2022-09-17T05:29:19.577Z,40.95
2022-09-17T05:30:24.556Z,15.68
2022-09-17T05:31:26.617Z,18.27
2022-09-17T05:32:33.313Z,48.67
2022-09-17T05:33:35.408Z,20.90
2022-09-17T05:34:40.663Z,21.98
2022-09-17T05:35:44.779Z,14.98
2022-09-17T05:36:49.366Z,35.72
2022-09-17T05:37:51.435Z,15.20
2022-09-17T05:38:56.198Z,27.25
2022-09-17T05:39:58.345Z,20.25
2022-09-17T05:41:06.879Z,18.67
2022-09-17T05:42:11.600Z,27.02
2022-09-17T05:43:16.364Z,19.02
2022-09-17T05:44:18.853Z,37.15
2022-09-17T05:45:23.488Z,13.45
2022-09-17T05:46:25.578Z,23.13
2022-09-17T05:47:30.267Z,22.73
2022-09-17T05:48:32.886Z,19.38
2022-09-17T05:49:37.605Z,16.83
2022-09-17T05:50:39.878Z,11.80
2022-09-17T05:51:44.731Z,21.65
2022-09-17T05:52:46.863Z,31.05
2022-09-17T05:53:51.625Z,42.88
2022-09-17T05:54:53.648Z,27.83
2022-09-17T05:55:59.837Z,38.08
2022-09-17T05:57:02.004Z,30.83
2022-09-17T05:58:16.269Z,24.80
2022-09-17T05:59:19.456Z,32.42
2022-09-17T06:00:24.177Z,13.98
2022-09-17T06:01:26.465Z,28.85
2022-09-17T06:02:33.969Z,12.45
2022-09-17T06:03:36.278Z,20.80
2022-09-17T06:04:41.530Z,27.75
2022-09-17T06:05:44.666Z,25.50
2022-09-17T06:06:49.289Z,14.45
2022-09-17T06:07:51.753Z,30.90
2022-09-17T06:08:56.416Z,22.70
2022-09-17T06:09:58.518Z,26.92
2022-09-17T06:11:07.009Z,40.70
2022-09-17T06:12:09.226Z,39.45
2022-09-17T06:13:16.429Z,33.10
2022-09-17T06:14:18.468Z,36.38
2022-09-17T06:15:23.133Z,28.70
2022-09-17T06:16:25.396Z,46.75
2022-09-17T06:17:30.068Z,30.15
2022-09-17T06:18:32.431Z,25.52
2022-09-17T06:19:37.177Z,30.83
2022-09-17T06:20:39.264Z,30.63
2022-09-17T06:21:43.911Z,41.35
2022-09-17T06:22:46.264Z,40.83
2022-09-17T06:23:50.906Z,28.45
2022-09-17T06:24:53.033Z,30.77
2022-09-17T06:26:00.154Z,31.27
2022-09-17T06:27:05.166Z,34.75
2022-09-17T06:28:07.229Z,31.35
2022-09-17T06:29:17.775Z,39.15
2022-09-17T06:30:19.930Z,108.15
2022-09-17T06:31:26.372Z,20.60
2022-09-17T06:32:29.083Z,19.25
2022-09-17T06:33:36.352Z,30.05
2022-09-17T06:34:38.436Z,19.58
2022-09-17T06:35:43.091Z,19.67
2022-09-17T06:36:45.454Z,31.88
2022-09-17T06:37:50.100Z,15.48
2022-09-17T06:38:52.345Z,33.55
2022-09-17T06:39:57.177Z,11.00
2022-09-17T06:40:59.303Z,25.65
2022-09-17T06:42:04.027Z,19.13
2022-09-17T06:43:06.219Z,11.38
2022-09-17T06:44:10.972Z,11.48
2022-09-17T06:45:16.866Z,24.00
2022-09-17T06:46:21.849Z,29.23
2022-09-17T06:47:24.952Z,38.35
2022-09-17T06:48:30.697Z,30.45
2022-09-17T06:49:32.789Z,24.58
2022-09-17T06:50:42.545Z,38.80
2022-09-17T06:51:47.808Z,25.45
2022-09-17T06:52:49.856Z,18.27
2022-09-17T06:53:54.485Z,40.13
2022-09-17T06:54:57.645Z,20.23
2022-09-17T06:56:06.441Z,20.65
2022-09-17T06:57:08.954Z,28.50
2022-09-17T06:58:13.650Z,19.20
2022-09-17T06:59:15.721Z,26.55
2022-09-17T07:00:23.579Z,26.05
2022-09-17T07:01:25.693Z,36.72
2022-09-17T07:02:30.425Z,22.10
2022-09-17T07:03:33.165Z,26.75
2022-09-17T07:04:39.988Z,27.05
2022-09-17T07:05:44.287Z,39.55
2022-09-17T07:06:49.330Z,27.35
2022-09-17T07:07:51.418Z,13.75
2022-09-17T07:08:56.018Z,28.83
2022-09-17T07:09:58.101Z,23.48
2022-09-17T07:11:03.011Z,30.02
2022-09-17T07:12:08.284Z,26.02
2022-09-17T07:13:12.978Z,34.55
2022-09-17T07:14:15.338Z,26.48
2022-09-17T07:15:22.496Z,29.13
2022-09-17T07:16:24.675Z,33.88
2022-09-17T07:17:32.620Z,22.63
2022-09-17T07:18:37.326Z,21.20
2022-09-17T07:19:39.705Z,46.38
2022-09-17T07:20:44.361Z,30.73
2022-09-17T07:21:51.390Z,29.48
2022-09-17T07:22:57.509Z,24.77
2022-09-17T07:24:02.240Z,33.60
2022-09-17T07:25:05.333Z,30.23
2022-09-17T07:26:15.010Z,16.65
2022-09-17T07:27:17.051Z,22.30
2022-09-17T07:28:22.828Z,13.95
2022-09-17T07:29:26.622Z,12.77
2022-09-17T07:30:33.865Z,22.42
2022-09-17T07:31:36.003Z,16.10
2022-09-17T07:32:40.708Z,24.42
2022-09-17T07:33:42.955Z,16.05
2022-09-17T07:34:47.611Z,43.33
2022-09-17T07:35:55.055Z,14.25
2022-09-17T07:36:59.781Z,19.33
2022-09-17T07:38:06.276Z,20.30
2022-09-17T07:39:11.711Z,18.55
2022-09-17T07:40:13.904Z,12.55
2022-09-17T07:41:20.187Z,39.22
2022-09-17T07:42:22.321Z,21.13
2022-09-17T07:43:27.452Z,31.38
2022-09-17T07:44:32.171Z,14.07
2022-09-17T07:45:36.829Z,46.90
2022-09-17T07:46:41.553Z,18.48
2022-09-17T07:47:44.505Z,21.40
2022-09-17T07:48:49.335Z,67.40
2022-09-17T07:49:51.385Z,93.13
2022-09-17T07:50:56.209Z,35.78
2022-09-17T07:52:00.079Z,33.95
2022-09-17T07:53:04.788Z,32.85
2022-09-17T07:54:07.412Z,15.45
2022-09-17T07:55:12.965Z,17.98
2022-09-17T07:56:17.632Z,24.98
2022-09-17T07:57:19.657Z,16.38
2022-09-17T07:58:25.264Z,11.32
2022-09-17T07:59:27.300Z,27.38
2022-09-17T08:00:31.967Z,40.85
2022-09-17T08:01:36.830Z,26.85
2022-09-17T08:02:43.910Z,38.78
2022-09-17T08:03:53.055Z,26.40
2022-09-17T08:04:55.304Z,34.95
2022-09-17T08:06:05.635Z,77.65
2022-09-17T08:07:07.692Z,16.92
2022-09-17T08:08:12.402Z,18.45
2022-09-17T08:09:15.748Z,33.33
2022-09-17T08:10:24.698Z,14.23
2022-09-17T08:12:54.036Z,6.88
2022-09-17T08:13:56.223Z,10.68
2022-09-17T08:15:00.830Z,15.13
2022-09-17T08:16:05.526Z,26.65
2022-09-17T08:17:13.142Z,17.52
2022-09-17T08:18:17.046Z,24.95
2022-09-17T08:19:22.423Z,8.60
2022-09-17T08:20:26.347Z,17.40
2022-09-17T08:21:30.985Z,23.08
2022-09-17T08:22:33.592Z,9.10
2022-09-17T08:23:40.127Z,37.42
2022-09-17T08:24:45.588Z,12.80
2022-09-17T08:25:52.725Z,29.98
2022-09-17T08:26:57.351Z,26.80
2022-09-17T08:27:59.498Z,30.67
2022-09-17T08:29:04.673Z,27.17
2022-09-17T08:30:10.882Z,24.45
2022-09-17T08:31:13.805Z,34.10
2022-09-17T08:32:21.397Z,41.17
2022-09-17T08:33:23.457Z,32.20
2022-09-17T08:34:28.095Z,37.53
2022-09-17T08:35:31.930Z,24.38
2022-09-17T08:36:36.992Z,24.52
2022-09-17T08:37:39.112Z,18.27
2022-09-17T08:38:44.098Z,20.30
2022-09-17T08:39:47.313Z,30.27
2022-09-17T08:41:03.762Z,19.17
2022-09-17T08:42:12.278Z,21.15
2022-09-17T08:43:22.180Z,49.05
2022-09-17T08:44:27.819Z,40.97
2022-09-17T08:45:33.499Z,18.05
2022-09-17T08:46:43.760Z,20.40
2022-09-17T08:47:51.948Z,31.98
2022-09-17T08:49:06.224Z,23.42
2022-09-17T08:50:17.433Z,39.38
2022-09-17T08:51:35.223Z,23.15
2022-09-17T08:53:06.659Z,27.92
2022-09-17T08:54:15.760Z,53.90
2022-09-17T08:55:40.032Z,29.20
2022-09-17T08:56:45.630Z,25.45
2022-09-17T08:58:01.040Z,21.60
2022-09-17T08:59:21.964Z,29.20
2022-09-17T09:00:25.070Z,31.15
2022-09-17T09:01:48.376Z,17.08
2022-09-17T09:03:08.262Z,24.60
2022-09-17T09:04:48.390Z,22.60
2022-09-17T09:05:52.659Z,54.95
2022-09-17T09:07:03.587Z,37.78
2022-09-17T09:08:13.593Z,63.85
2022-09-17T09:09:20.408Z,27.58
2022-09-17T09:10:28.311Z,29.38
2022-09-17T09:11:32.079Z,36.60
2022-09-17T09:12:39.227Z,34.47
2022-09-17T09:13:43.814Z,39.03
2022-09-17T09:14:54.244Z,37.03
2022-09-17T09:16:02.613Z,26.90
2022-09-17T09:17:10.724Z,38.05
2022-09-17T09:18:19.682Z,46.75
2022-09-17T09:19:27.238Z,24.63
2022-09-17T09:20:35.867Z,33.63
2022-09-17T09:21:47.450Z,64.78
2022-09-17T09:23:58.770Z,37.58
2022-09-17T09:25:12.068Z,44.90
2022-09-17T09:26:20.712Z,34.88
2022-09-17T09:27:30.522Z,15.43
2022-09-17T09:28:42.862Z,25.65
2022-09-17T09:29:58.668Z,34.08
2022-09-17T09:31:10.408Z,31.15
2022-09-17T09:32:26.802Z,57.20
2022-09-17T09:33:36.047Z,26.38
2022-09-17T09:34:41.550Z,33.25
2022-09-17T09:35:44.502Z,50.55
2022-09-17T09:36:50.278Z,38.42
2022-09-17T09:37:58.243Z,40.33
2022-09-17T09:39:06.372Z,22.23
2022-09-17T09:40:25.565Z,33.53
2022-09-17T09:41:36.941Z,21.23
2022-09-17T09:42:40.086Z,31.30
2022-09-17T09:44:04.814Z,27.38
2022-09-17T09:45:15.497Z,32.05
2022-09-17T09:46:35.565Z,44.17
2022-09-17T09:47:55.499Z,32.47
2022-09-17T09:49:09.990Z,93.32
2022-09-17T09:50:54.783Z,39.05
2022-09-17T09:52:11.853Z,28.98
2022-09-17T09:53:30.076Z,27.27
2022-09-17T09:54:49.722Z,23.83
2022-09-17T09:56:06.455Z,35.40
2022-09-17T09:57:15.684Z,26.73
2022-09-17T09:58:25.182Z,27.70
2022-09-17T09:59:29.856Z,16.80
2022-09-17T10:00:36.554Z,68.45
2022-09-17T10:01:45.413Z,50.53
2022-09-17T10:02:49.227Z,55.63
2022-09-17T10:03:58.338Z,32.03
2022-09-17T10:05:10.938Z,27.20
2022-09-17T10:06:17.132Z,27.05
2022-09-17T10:07:19.227Z,23.15
2022-09-17T10:08:24.560Z,32.13
2022-09-17T10:09:27.891Z,20.08
2022-09-17T10:10:32.636Z,16.73
2022-09-17T10:11:34.893Z,34.47
2022-09-17T10:12:39.654Z,25.48
2022-09-17T10:13:44.396Z,22.55
2022-09-17T10:14:47.202Z,21.00
2022-09-17T10:15:52.010Z,24.42
2022-09-17T10:17:24.193Z,20.45
2022-09-17T10:18:26.624Z,25.98
2022-09-17T10:19:31.405Z,25.77
2022-09-17T10:20:36.109Z,32.92
2022-09-17T10:21:42.421Z,76.15
2022-09-17T10:22:45.925Z,49.30
2022-09-17T10:23:51.401Z,31.67
2022-09-17T10:24:56.168Z,51.35
2022-09-17T10:26:01.147Z,64.47
2022-09-17T10:27:06.799Z,46.65
2022-09-17T10:28:38.987Z,39.90
2022-09-17T10:29:43.753Z,29.33
2022-09-17T10:30:59.493Z,38.05
2022-09-17T10:32:07.109Z,49.45
2022-09-17T10:33:22.619Z,40.45
2022-09-17T10:34:29.253Z,27.38
2022-09-17T10:35:31.929Z,61.90
2022-09-17T10:36:47.832Z,48.78
2022-09-17T10:37:54.295Z,50.85
2022-09-17T10:38:59.054Z,54.83
2022-09-17T10:40:01.767Z,34.75
2022-09-17T10:41:21.987Z,26.00
2022-09-17T10:42:24.007Z,29.83
2022-09-17T10:43:28.720Z,38.25
2022-09-17T10:44:32.743Z,780.38
2022-09-17T10:45:39.347Z,27.33
2022-09-17T10:46:44.028Z,24.00
2022-09-17T10:47:46.387Z,30.73
2022-09-17T10:49:00.974Z,16.23
2022-09-17T10:50:06.226Z,24.95
2022-09-17T10:51:12.711Z,38.38
2022-09-17T10:52:27.795Z,29.58
2022-09-17T10:53:29.962Z,22.35
2022-09-17T10:54:49.413Z,26.98
2022-09-17T10:55:58.904Z,15.55
2022-09-17T10:57:02.272Z,15.63
2022-09-17T10:58:19.784Z,21.45
2022-09-17T10:59:57.057Z,14.52
2022-09-17T11:01:12.900Z,39.00
2022-09-17T11:02:45.649Z,24.77
2022-09-17T11:04:12.547Z,27.27
2022-09-17T11:05:38.453Z,18.55
2022-09-17T11:07:10.249Z,19.20
2022-09-17T11:08:25.192Z,46.28
2022-09-17T11:09:39.938Z,18.90
2022-09-17T11:10:53.182Z,9.60
2022-09-17T11:12:12.942Z,19.00
2022-09-17T11:13:30.257Z,31.27
2022-09-17T11:14:50.551Z,17.80
2022-09-17T11:16:14.220Z,10.43
2022-09-17T11:17:31.632Z,15.32
2022-09-17T11:18:41.107Z,22.48
2022-09-17T11:19:53.713Z,20.00
2022-09-17T11:21:21.033Z,39.05
2022-09-17T11:22:31.908Z,10.07
2022-09-17T11:23:55.257Z,34.40
2022-09-17T11:25:17.395Z,411.38
2022-09-17T11:26:31.512Z,307.70
2022-09-17T11:28:04.621Z,23.85
2022-09-17T11:29:26.955Z,22.50
2022-09-17T11:30:39.846Z,18.45
2022-09-17T11:31:56.766Z,19.02
2022-09-17T11:33:24.633Z,26.60
2022-09-17T11:34:35.106Z,26.50
2022-09-17T11:35:41.334Z,26.33
2022-09-17T11:36:54.136Z,11.18
2022-09-17T11:38:02.568Z,29.02
2022-09-17T11:39:18.218Z,34.95
2022-09-17T11:40:26.271Z,22.20
2022-09-17T11:41:38.541Z,40.80
2022-09-17T11:42:45.801Z,48.53
2022-09-17T11:43:53.719Z,44.13
2022-09-17T11:45:02.555Z,26.02
2022-09-17T11:46:12.392Z,31.17
2022-09-17T11:47:21.802Z,30.67
2022-09-17T11:48:35.112Z,6.60
2022-09-17T11:49:47.201Z,16.70
2022-09-17T11:50:53.828Z,17.85
2022-09-17T11:52:03.773Z,18.95
2022-09-17T11:53:16.650Z,26.77
2022-09-17T11:54:31.127Z,25.80
2022-09-17T11:55:44.936Z,7.40
2022-09-17T11:56:54.119Z,213.95
2022-09-17T11:58:05.641Z,254.80
2022-09-17T11:59:16.613Z,248.52
2022-09-17T12:00:25.517Z,248.23
2022-09-17T12:01:34.846Z,123.28
2022-09-17T12:02:49.657Z,18.35
2022-09-17T12:03:57.136Z,9.07
2022-09-17T12:05:06.979Z,12.18
2022-09-17T12:06:14.675Z,37.40
2022-09-17T12:07:33.216Z,9.70
2022-09-17T12:08:45.131Z,13.27
2022-09-17T12:09:54.073Z,14.88
2022-09-17T12:11:04.373Z,8.13
2022-09-17T12:12:31.757Z,14.05
2022-09-17T12:13:42.922Z,10.10
2022-09-17T12:14:50.574Z,5.00
2022-09-17T12:16:07.262Z,4.13
2022-09-17T12:17:14.514Z,11.30
2022-09-17T12:18:33.803Z,15.93
2022-09-17T12:19:41.470Z,18.95
2022-09-17T12:20:50.832Z,17.73
2022-09-17T12:21:57.012Z,15.00
2022-09-17T12:23:05.474Z,17.35
2022-09-17T12:24:20.667Z,28.55
2022-09-17T12:25:29.797Z,5.78
2022-09-17T12:26:49.259Z,9.88
2022-09-17T12:28:02.017Z,30.13
2022-09-17T12:29:14.027Z,19.73
2022-09-17T12:30:23.197Z,23.58
2022-09-17T12:31:33.064Z,3.80
2022-09-17T12:32:53.520Z,723.65
2022-09-17T12:34:06.317Z,782.58
2022-09-17T12:35:21.443Z,229.25
2022-09-17T12:36:40.818Z,50.70
2022-09-17T12:37:53.167Z,7.85
2022-09-17T12:39:23.457Z,28.35
2022-09-17T12:40:42.856Z,23.90
2022-09-17T12:41:55.366Z,41.72
2022-09-17T12:43:16.359Z,218.30
2022-09-17T12:44:38.397Z,487.77
2022-09-17T12:47:21.023Z,99.25
2022-09-17T12:48:44.303Z,124.70
2022-09-17T12:50:11.556Z,113.60
2022-09-17T12:51:26.489Z,93.25
2022-09-17T12:52:41.713Z,686.83
2022-09-17T12:53:56.341Z,252.45
2022-09-17T12:55:20.298Z,140.82
2022-09-17T12:56:43.563Z,54.90
2022-09-17T12:57:56.042Z,10.00
2022-09-17T12:59:11.071Z,28.40
2022-09-17T13:00:14.836Z,7.07
2022-09-17T13:01:26.969Z,29.33
2022-09-17T13:02:34.120Z,10.02
2022-09-17T13:03:43.440Z,7.63
2022-09-17T13:05:10.126Z,34.22
2022-09-17T13:06:51.914Z,9.52
2022-09-17T13:08:35.680Z,30.42
2022-09-17T13:10:15.487Z,12.88
2022-09-17T13:11:52.708Z,40.08
2022-09-17T13:13:00.300Z,11.30
2022-09-17T13:14:14.831Z,30.25
2022-09-17T13:15:40.109Z,16.63
2022-09-17T13:16:46.617Z,35.03
2022-09-17T13:18:13.338Z,20.10
2022-09-17T13:19:33.922Z,10.98
2022-09-17T13:20:43.773Z,25.58
2022-09-17T13:21:55.823Z,37.97
2022-09-17T13:22:58.990Z,11.63
2022-09-17T13:24:04.685Z,10.05
2022-09-17T13:25:09.627Z,5.65
2022-09-17T13:26:17.186Z,30.08
2022-09-17T13:27:27.122Z,6.47
2022-09-17T13:28:44.741Z,11.05
2022-09-17T13:30:02.367Z,18.73
2022-09-17T13:31:08.775Z,15.45
2022-09-17T13:32:50.313Z,27.17
2022-09-17T13:33:58.289Z,5.25
2022-09-17T13:35:42.961Z,2.22
2022-09-17T13:36:51.233Z,29.92
2022-09-17T13:37:58.049Z,5.10
2022-09-17T13:39:03.615Z,55.75
2022-09-17T13:40:22.962Z,24.80
2022-09-17T13:41:29.597Z,26.48
2022-09-17T13:42:49.333Z,79.30
2022-09-17T13:43:57.850Z,33.35
2022-09-17T13:45:08.740Z,24.90
2022-09-17T13:46:26.054Z,257.10
2022-09-17T13:47:31.306Z,198.45
2022-09-17T13:48:38.533Z,239.32
2022-09-17T13:49:50.969Z,125.18
2022-09-17T13:50:53.704Z,22.27
2022-09-17T13:51:59.846Z,12.88
2022-09-17T13:53:21.578Z,53.67
2022-09-17T13:54:35.749Z,173.18
2022-09-17T13:55:43.770Z,193.88
2022-09-17T13:56:50.808Z,14.35
2022-09-17T13:58:00.562Z,64.13
2022-09-17T13:59:10.484Z,224.88
2022-09-17T14:00:51.261Z,763.22
2022-09-17T14:02:02.170Z,498.38
2022-09-17T14:03:44.783Z,553.17
2022-09-17T14:05:14.758Z,20.67
2022-09-17T14:07:12.977Z,54.47
2022-09-17T14:08:32.213Z,373.85
2022-09-17T14:09:51.480Z,806.72
2022-09-17T14:11:28.647Z,640.33
2022-09-17T14:12:59.008Z,136.32
2022-09-17T14:14:50.272Z,206.98
2022-09-17T14:16:02.231Z,940.05
2022-09-17T14:17:09.229Z,782.13
2022-09-17T14:18:42.369Z,898.08
2022-09-17T14:19:55.308Z,950.60
2022-09-17T14:21:07.921Z,964.47
2022-09-17T14:22:20.508Z,478.90
2022-09-17T14:23:23.421Z,138.00
2022-09-17T14:24:32.928Z,114.30
2022-09-17T14:25:44.603Z,52.03
2022-09-17T14:28:03.488Z,69.22
2022-09-17T14:29:19.421Z,50.05
2022-09-17T14:30:26.077Z,13.13
2022-09-17T14:31:34.626Z,10.07
2022-09-17T14:32:52.986Z,21.75
2022-09-17T14:33:55.943Z,7.07
2022-09-17T14:35:01.512Z,187.90
2022-09-17T14:36:14.325Z,132.77
2022-09-17T14:37:20.639Z,206.38
2022-09-17T14:38:30.622Z,628.08
2022-09-17T14:39:39.721Z,854.63
2022-09-17T14:40:51.162Z,810.13
2022-09-17T14:41:55.057Z,783.63
2022-09-17T14:43:03.143Z,344.98
2022-09-17T14:44:10.446Z,343.90
2022-09-17T14:45:20.772Z,109.85
2022-09-17T14:46:31.290Z,170.73
2022-09-17T14:47:35.350Z,98.70
2022-09-17T14:48:43.088Z,62.45
2022-09-17T14:49:46.917Z,9.65
2022-09-17T14:50:51.610Z,17.27
2022-09-17T14:51:57.484Z,17.08
2022-09-17T14:53:09.717Z,6.18
2022-09-17T14:54:20.664Z,13.38
2022-09-17T14:55:26.586Z,5.57
2022-09-17T14:56:33.663Z,89.78
2022-09-17T14:57:39.974Z,7.07
2022-09-17T14:58:49.014Z,33.58
2022-09-17T14:59:56.163Z,12.32
2022-09-17T15:01:00.411Z,14.63
2022-09-17T15:02:06.862Z,3.22
2022-09-17T15:03:26.169Z,38.38
2022-09-17T15:04:29.077Z,6.80
2022-09-17T15:05:40.968Z,4.10
2022-09-17T15:06:44.462Z,21.17
2022-09-17T15:07:53.888Z,5.07
2022-09-17T15:08:57.955Z,10.57
2022-09-17T15:10:17.087Z,27.63
2022-09-17T15:11:20.134Z,46.75
2022-09-17T15:12:30.379Z,34.00
2022-09-17T15:13:38.579Z,57.75
2022-09-17T15:14:46.108Z,11.18
2022-09-17T15:15:59.080Z,55.45
2022-09-17T15:17:03.493Z,9.57
2022-09-17T15:18:08.813Z,12.25
2022-09-17T15:19:14.481Z,27.80
2022-09-17T15:20:22.990Z,9.45
2022-09-17T15:21:32.123Z,5.95
2022-09-17T15:22:41.509Z,14.00
2022-09-17T15:23:44.350Z,14.82
2022-09-17T15:24:54.498Z,10.95